Skip Navigation LinksHome page > Tools > METAR decoder Skip Navigation Links

METAR decoder

Settings

METAR

Chicago O'Hare Intl, Chicago

For information only: do not use for flight planning or navigation.
Latest weather
Observation time Wednesday, April 23, 2014 7:51 AM CDT
Local time Wednesday, April 23, 2014 8:42 AM CDT
Flight conditions Visual Meteorological Conditions
Winds
Wind direction Northeast (40°)
Wind speed 14 mph
Visibility 10 mi.
Sky condition
Ceiling unlimited
Cloud layer few clouds 25,000 ft.
Temperature 40°F
Dewpoint 26°F
Altimeter 30.17 in.Hg
Derived measurements
Relative humidity 57%
Wind chill 32°F
Density altitude -1493 ft.
Sea-level pressure 30.18 in.Hg
Remarks
Automated weather observing station with precipitation discriminator.
METAR KORD 231251Z 04012KT 10SM FEW250 04/M03 A3017 RMK AO2 SLP221 T00441033

InnerDrive.Weather 4.0.4869.0 Release CLR 4.0.30319.18449
Copyright ©2013 Inner Drive Technology. All rights reserved. Portions Copyright ©1986-2013 David Braverman.

Find weather

Site navigation


Skip Navigation Links

Place info

Page info

PayPal - The safer, easier way to pay online!

Return home.

Copyright ©2014 Inner Drive Technology. Purveyors of fine, hand-crafted computer software. Page printed 2014-04-23T13:42:00 UTC.